createdAt,value
2023-05-01T00:00:43.949Z,8.40
2023-05-01T00:03:14.276Z,7.77
2023-05-01T00:05:43.182Z,8.30
2023-05-01T00:08:13.320Z,8.27
2023-05-01T00:10:41.936Z,7.63
2023-05-01T00:13:10.847Z,6.90
2023-05-01T00:15:42.209Z,8.33
2023-05-01T00:18:11.088Z,8.77
2023-05-01T00:20:39.787Z,8.40
2023-05-01T00:23:08.758Z,8.40
2023-05-01T00:25:38.788Z,10.30
2023-05-01T00:28:07.593Z,7.43
2023-05-01T00:30:36.605Z,9.20
2023-05-01T00:33:05.308Z,9.00
2023-05-01T00:35:35.629Z,7.83
2023-05-01T00:38:04.299Z,6.67
2023-05-01T00:40:32.935Z,10.30
2023-05-01T00:43:03.307Z,8.97
2023-05-01T00:45:31.890Z,7.00
2023-05-01T00:48:00.651Z,12.40
2023-05-01T00:50:29.541Z,7.63
2023-05-01T00:52:58.207Z,8.93
2023-05-01T00:55:27.934Z,9.20
2023-05-01T00:57:57.540Z,7.70
2023-05-01T01:00:27.552Z,7.60
2023-05-01T01:02:56.280Z,10.37
2023-05-01T01:05:27.296Z,8.43
2023-05-01T01:08:01.965Z,7.63
2023-05-01T01:10:37.007Z,11.80
2023-05-01T01:13:13.287Z,9.03
2023-05-01T01:15:45.863Z,7.30
2023-05-01T01:18:18.189Z,9.50
2023-05-01T01:20:51.586Z,7.00
2023-05-01T01:23:59.501Z,8.03
2023-05-01T01:26:51.277Z,8.83
2023-05-01T01:29:41.901Z,11.90
2023-05-01T01:32:28.372Z,8.90
2023-05-01T01:35:02.779Z,12.80
2023-05-01T01:37:36.930Z,7.97
2023-05-01T01:40:08.524Z,10.87
2023-05-01T01:42:39.657Z,8.37
2023-05-01T01:45:12.632Z,8.97
2023-05-01T01:47:42.699Z,7.30
2023-05-01T01:50:13.868Z,8.80
2023-05-01T01:52:43.638Z,10.70
2023-05-01T01:55:13.654Z,7.20
2023-05-01T01:57:43.916Z,7.97
2023-05-01T02:00:14.079Z,7.77
2023-05-01T02:02:44.019Z,8.53
2023-05-01T02:05:17.556Z,9.57
2023-05-01T02:07:48.623Z,8.40
2023-05-01T02:10:17.868Z,11.60
2023-05-01T02:12:47.936Z,7.67
2023-05-01T02:15:18.304Z,10.40
2023-05-01T02:17:47.423Z,7.57
2023-05-01T02:20:17.623Z,7.60
2023-05-01T02:22:48.154Z,8.40
2023-05-01T02:25:17.485Z,12.17
2023-05-01T02:27:49.271Z,8.60
2023-05-01T02:30:19.009Z,9.13
2023-05-01T02:32:47.759Z,7.63
2023-05-01T02:35:17.992Z,13.23
2023-05-01T02:37:47.164Z,7.43
2023-05-01T02:40:16.386Z,13.10
2023-05-01T02:42:46.214Z,9.97
2023-05-01T02:45:20.058Z,8.10
2023-05-01T02:47:52.821Z,8.73
2023-05-01T02:50:23.396Z,9.83
2023-05-01T02:52:52.354Z,7.00
2023-05-01T02:55:21.209Z,8.30
2023-05-01T02:57:51.763Z,8.80
2023-05-01T03:00:20.828Z,12.80
2023-05-01T03:02:49.505Z,11.80
2023-05-01T03:05:19.878Z,7.97
2023-05-01T03:07:51.275Z,9.80
2023-05-01T03:10:19.979Z,11.83
2023-05-01T03:12:48.657Z,8.63
2023-05-01T03:15:18.483Z,9.53
2023-05-01T03:17:47.212Z,12.10
2023-05-01T03:20:16.137Z,9.30
2023-05-01T03:22:44.715Z,8.00
2023-05-01T03:25:15.299Z,8.13
2023-05-01T03:27:43.915Z,12.77
2023-05-01T03:30:13.226Z,9.80
2023-05-01T03:32:41.890Z,9.20
2023-05-01T03:35:10.778Z,9.00
2023-05-01T03:37:39.436Z,10.23
2023-05-01T03:40:09.124Z,8.87
2023-05-01T03:42:39.039Z,9.80
2023-05-01T03:45:08.895Z,8.60
2023-05-01T03:47:37.561Z,8.83
2023-05-01T03:50:07.495Z,13.87
2023-05-01T03:52:36.128Z,8.67
2023-05-01T03:55:05.307Z,8.77
2023-05-01T03:57:34.206Z,8.70
2023-05-01T04:00:05.510Z,7.57
2023-05-01T04:02:34.212Z,11.10
2023-05-01T04:05:03.037Z,8.67
2023-05-01T04:07:31.623Z,9.17
2023-05-01T04:10:00.267Z,11.10
2023-05-01T04:12:28.834Z,9.30
2023-05-01T04:14:57.452Z,8.67
2023-05-01T04:17:27.416Z,7.97
2023-05-01T04:19:56.192Z,7.10
2023-05-01T04:22:25.180Z,7.90
2023-05-01T04:24:54.226Z,11.27
2023-05-01T04:27:23.043Z,9.50
2023-05-01T04:29:51.805Z,8.93
2023-05-01T04:32:20.455Z,7.33
2023-05-01T04:34:50.542Z,14.43
2023-05-01T04:37:19.092Z,7.67
2023-05-01T04:39:47.698Z,7.23
2023-05-01T04:42:16.305Z,11.50
2023-05-01T04:44:47.216Z,8.70
2023-05-01T04:47:15.768Z,7.83
2023-05-01T04:49:44.360Z,8.43
2023-05-01T04:52:14.362Z,8.50
2023-05-01T04:54:42.940Z,8.27
2023-05-01T04:57:11.561Z,9.50
2023-05-01T04:59:40.205Z,8.97
2023-05-01T05:02:08.991Z,8.13
2023-05-01T05:04:37.741Z,8.40
2023-05-01T05:07:06.376Z,8.70
2023-05-01T05:09:36.415Z,10.67
2023-05-01T05:12:05.851Z,9.20
2023-05-01T05:14:34.458Z,9.03
2023-05-01T05:17:03.286Z,10.43
2023-05-01T05:19:31.833Z,12.17
2023-05-01T05:22:00.514Z,13.60
2023-05-01T05:24:29.159Z,10.33
2023-05-01T05:26:59.405Z,12.00
2023-05-01T05:29:28.041Z,8.83
2023-05-01T05:31:57.699Z,9.80
2023-05-01T05:34:26.490Z,8.97
2023-05-01T05:36:55.070Z,11.93
2023-05-01T05:39:23.758Z,9.53
2023-05-01T05:41:53.863Z,8.50
2023-05-01T05:44:23.868Z,9.50
2023-05-01T05:46:52.581Z,9.23
2023-05-01T05:49:21.188Z,9.73
2023-05-01T05:51:49.785Z,8.53
2023-05-01T05:54:18.348Z,11.50
2023-05-01T05:56:46.972Z,9.60
2023-05-01T05:59:17.278Z,8.03
2023-05-01T06:01:47.585Z,8.80
2023-05-01T06:04:16.351Z,8.00
2023-05-01T06:06:44.958Z,10.23
2023-05-01T06:09:14.823Z,7.80
2023-05-01T06:11:43.436Z,12.33
2023-05-01T06:14:12.193Z,8.47
2023-05-01T06:16:40.896Z,10.03
2023-05-01T06:19:12.182Z,11.30
2023-05-01T06:21:41.216Z,11.60
2023-05-01T06:24:09.888Z,9.33
2023-05-01T06:26:38.473Z,12.53
2023-05-01T06:29:07.165Z,9.03
2023-05-01T06:31:35.967Z,7.10
2023-05-01T06:34:04.688Z,8.77
2023-05-01T06:36:34.600Z,8.80
2023-05-01T06:39:03.259Z,8.90
2023-05-01T06:41:32.579Z,11.60
2023-05-01T06:44:01.158Z,11.23
2023-05-01T06:46:29.752Z,8.23
2023-05-01T06:48:58.412Z,9.83
2023-05-01T06:51:27.641Z,7.47
2023-05-01T06:53:57.616Z,8.43
2023-05-01T06:56:27.086Z,7.80
2023-05-01T06:58:55.758Z,7.97
2023-05-01T07:01:24.537Z,8.13
2023-05-01T07:03:53.229Z,8.70
2023-05-01T07:06:21.887Z,8.47
2023-05-01T07:08:51.951Z,8.43
2023-05-01T07:11:21.932Z,9.40
2023-05-01T07:13:50.558Z,8.07
2023-05-01T07:16:19.239Z,7.60
2023-05-01T07:18:48.014Z,8.70
2023-05-01T07:21:16.654Z,9.75
2023-05-01T07:23:45.325Z,7.33
2023-05-01T07:26:13.916Z,8.80
2023-05-01T07:28:43.853Z,8.30
2023-05-01T07:31:12.511Z,9.03
2023-05-01T07:33:41.971Z,9.70
2023-05-01T07:36:10.736Z,7.13
2023-05-01T07:38:39.313Z,8.40
2023-05-01T07:41:08.131Z,8.13
2023-05-01T07:43:36.936Z,10.90
2023-05-01T07:46:07.226Z,7.87
2023-05-01T07:48:38.189Z,8.53
2023-05-01T07:51:07.504Z,7.97
2023-05-01T07:53:36.151Z,7.50
2023-05-01T07:56:08.837Z,9.77
2023-05-01T07:58:38.056Z,10.30
2023-05-01T08:01:09.075Z,9.87
2023-05-01T08:03:37.873Z,8.60
2023-05-01T08:06:07.127Z,9.33
2023-05-01T08:08:35.823Z,8.13
2023-05-01T08:11:04.433Z,9.73
2023-05-01T08:13:33.075Z,9.10
2023-05-01T08:16:02.777Z,11.13
2023-05-01T08:18:32.756Z,9.53
2023-05-01T08:21:01.280Z,11.20
2023-05-01T08:23:29.955Z,10.70
2023-05-01T08:25:58.743Z,11.67
2023-05-01T08:28:27.436Z,11.23
2023-05-01T08:30:56.063Z,10.97
2023-05-01T08:33:24.656Z,10.63
2023-05-01T08:35:54.721Z,11.67
2023-05-01T08:38:23.325Z,10.73
2023-05-01T08:40:53.906Z,22.00
2023-05-01T08:43:22.704Z,13.40
2023-05-01T08:45:52.287Z,14.80
2023-05-01T08:48:21.088Z,16.97
2023-05-01T08:50:50.007Z,11.30
2023-05-01T08:53:20.210Z,10.10
2023-05-01T08:55:49.844Z,11.00
2023-05-01T08:58:19.652Z,8.93
2023-05-01T09:00:48.604Z,8.53
2023-05-01T09:03:17.657Z,8.33
2023-05-01T09:05:47.053Z,7.53
2023-05-01T09:08:16.023Z,7.57
2023-05-01T09:10:49.430Z,10.73
2023-05-01T09:13:18.054Z,9.00
2023-05-01T09:15:46.734Z,8.37
2023-05-01T09:18:15.476Z,6.13
2023-05-01T09:20:44.099Z,9.03
2023-05-01T09:23:12.750Z,7.40
2023-05-01T09:25:41.418Z,8.47
2023-05-01T09:28:11.460Z,6.97
2023-05-01T09:30:40.605Z,10.90
2023-05-01T09:33:10.668Z,7.00
2023-05-01T09:35:52.926Z,6.43
2023-05-01T09:38:22.969Z,10.57
2023-05-01T09:40:52.008Z,6.80
2023-05-01T09:43:29.512Z,5.97
2023-05-01T09:46:03.794Z,12.70
2023-05-01T09:48:35.011Z,6.90
2023-05-01T09:51:21.845Z,8.77
2023-05-01T09:53:51.313Z,7.10
2023-05-01T09:56:21.221Z,8.50
2023-05-01T09:58:52.174Z,6.90
2023-05-01T10:01:38.905Z,6.70
2023-05-01T10:04:08.840Z,8.33
2023-05-01T10:06:38.231Z,8.30
2023-05-01T10:09:08.384Z,6.10
2023-05-01T10:11:49.382Z,6.40
2023-05-01T10:14:20.345Z,8.57
2023-05-01T10:16:49.613Z,6.70
2023-05-01T10:19:18.700Z,7.93
2023-05-01T10:21:47.369Z,6.20
2023-05-01T10:24:18.368Z,8.50
2023-05-01T10:26:49.418Z,7.57
2023-05-01T10:29:20.504Z,6.30
2023-05-01T10:31:49.107Z,9.90
2023-05-01T10:34:19.437Z,8.57
2023-05-01T10:36:54.775Z,5.90
2023-05-01T10:39:33.029Z,7.68
2023-05-01T10:42:03.538Z,6.83
2023-05-01T10:44:34.950Z,8.53
2023-05-01T10:47:41.506Z,6.07
2023-05-01T10:50:11.282Z,5.90
2023-05-01T10:53:17.540Z,6.87
2023-05-01T10:55:47.513Z,7.73
2023-05-01T10:58:52.049Z,8.47
2023-05-01T11:01:32.697Z,6.47
2023-05-01T11:04:03.970Z,6.03
2023-05-01T11:06:33.527Z,7.60
2023-05-01T11:09:02.700Z,9.27
2023-05-01T11:11:49.321Z,6.80
2023-05-01T11:14:18.155Z,5.67
2023-05-01T11:16:49.421Z,7.07
2023-05-01T11:19:47.552Z,9.20
2023-05-01T11:22:16.430Z,5.40
2023-05-01T11:24:45.237Z,5.70
2023-05-01T11:27:18.309Z,6.20
2023-05-01T11:29:48.704Z,5.90
2023-05-01T11:32:27.069Z,6.87
2023-05-01T11:34:56.119Z,8.50
2023-05-01T11:37:40.919Z,5.50
2023-05-01T11:40:21.016Z,6.10
2023-05-01T11:42:49.869Z,5.63
2023-05-01T11:45:20.733Z,6.63
2023-05-01T11:47:51.142Z,5.90
2023-05-01T11:50:21.445Z,5.63
2023-05-01T11:52:53.525Z,5.40
2023-05-01T11:55:22.906Z,5.20
2023-05-01T11:57:52.462Z,5.30
2023-05-01T12:00:29.848Z,6.20
2023-05-01T12:03:01.489Z,8.70
2023-05-01T12:05:32.585Z,5.70
2023-05-01T12:08:09.582Z,5.40
2023-05-01T12:10:39.515Z,6.00
2023-05-01T12:13:09.071Z,7.10
2023-05-01T12:15:38.478Z,6.10
2023-05-01T12:18:08.719Z,5.43
2023-05-01T12:20:41.473Z,8.20
2023-05-01T12:23:11.663Z,8.93
2023-05-01T12:25:42.767Z,6.47
2023-05-01T12:28:14.173Z,6.00
2023-05-01T12:30:43.667Z,5.87
2023-05-01T12:33:15.066Z,8.07
2023-05-01T12:35:45.370Z,8.77
2023-05-01T12:38:15.620Z,6.20
2023-05-01T12:40:53.187Z,5.77
2023-05-01T12:43:22.659Z,11.63
2023-05-01T12:45:53.646Z,6.77
2023-05-01T12:48:24.221Z,7.67
2023-05-01T12:50:54.806Z,8.67
2023-05-01T12:53:24.352Z,11.63
2023-05-01T12:55:55.118Z,6.70
2023-05-01T12:58:24.082Z,8.60
2023-05-01T13:00:53.903Z,6.60
2023-05-01T13:03:26.274Z,7.30
2023-05-01T13:05:56.646Z,8.47
2023-05-01T13:08:30.243Z,5.97
2023-05-01T13:11:00.338Z,6.60
2023-05-01T13:13:30.651Z,6.10
2023-05-01T13:16:12.405Z,6.80
2023-05-01T13:18:47.037Z,6.53
2023-05-01T13:21:17.362Z,6.10
2023-05-01T13:23:54.542Z,6.93
2023-05-01T13:26:27.616Z,8.50
2023-05-01T13:28:57.151Z,6.93
2023-05-01T13:31:26.015Z,6.97
2023-05-01T13:33:57.397Z,7.60
2023-05-01T13:36:27.460Z,7.33
2023-05-01T13:38:57.542Z,7.87
2023-05-01T13:41:27.521Z,5.80
2023-05-01T13:43:57.314Z,6.27
2023-05-01T13:46:27.484Z,7.00
2023-05-01T13:48:59.954Z,6.83
2023-05-01T13:51:28.528Z,5.83
2023-05-01T13:53:57.622Z,7.20
2023-05-01T13:56:26.196Z,7.03
2023-05-01T13:58:54.878Z,9.23
2023-05-01T14:01:23.862Z,10.10
2023-05-01T14:03:56.969Z,13.40
2023-05-01T14:06:28.576Z,12.00
2023-05-01T14:08:59.849Z,11.90
2023-05-01T14:11:28.605Z,10.30
2023-05-01T14:13:59.780Z,14.43
2023-05-01T14:16:31.496Z,16.03
2023-05-01T14:19:00.164Z,18.00
2023-05-01T14:21:30.298Z,16.90
2023-05-01T14:23:59.017Z,12.90
2023-05-01T14:26:27.708Z,14.83
2023-05-01T14:28:56.367Z,14.13
2023-05-01T14:31:27.186Z,16.77
2023-05-01T14:33:58.416Z,15.50
2023-05-01T14:36:30.829Z,15.27
2023-05-01T14:39:01.719Z,15.23
2023-05-01T14:41:31.516Z,16.30
2023-05-01T14:44:00.579Z,15.67
2023-05-01T14:46:31.111Z,14.40
2023-05-01T14:49:00.746Z,14.33
2023-05-01T14:51:31.224Z,15.40
2023-05-01T14:54:01.287Z,14.27
2023-05-01T14:56:29.909Z,15.13
2023-05-01T14:59:00.093Z,17.70
2023-05-01T15:01:28.783Z,20.80
2023-05-01T15:03:57.780Z,17.07
2023-05-01T15:06:27.259Z,16.47
2023-05-01T15:08:55.871Z,14.37
2023-05-01T15:11:25.846Z,15.40
2023-05-01T15:13:55.326Z,13.03
2023-05-01T15:16:23.999Z,14.10
2023-05-01T15:18:52.631Z,18.03
2023-05-01T15:21:21.242Z,14.63
2023-05-01T15:23:50.071Z,14.77
2023-05-01T15:26:18.660Z,18.40
2023-05-01T15:28:48.658Z,17.50
2023-05-01T15:31:19.218Z,17.50
2023-05-01T15:33:47.970Z,17.90
2023-05-01T15:36:16.618Z,12.73
2023-05-01T15:38:45.393Z,17.23
2023-05-01T15:41:15.926Z,15.60
2023-05-01T15:43:45.592Z,17.50
2023-05-01T15:46:16.173Z,16.93
2023-05-01T15:48:46.266Z,12.30
2023-05-01T15:51:14.855Z,12.23
2023-05-01T15:53:43.442Z,12.17
2023-05-01T15:56:12.206Z,12.03
2023-05-01T15:58:40.790Z,14.93
2023-05-01T16:01:09.879Z,9.77
2023-05-01T16:03:41.899Z,12.10
2023-05-01T16:06:10.744Z,10.03
2023-05-01T16:08:40.130Z,8.97
2023-05-01T16:11:11.181Z,10.90
2023-05-01T16:13:40.026Z,10.93
2023-05-01T16:16:10.112Z,11.40
2023-05-01T16:18:41.722Z,14.23
2023-05-01T16:21:10.733Z,11.57
2023-05-01T16:23:39.566Z,11.10
2023-05-01T16:26:08.337Z,10.07
2023-05-01T16:28:37.064Z,8.43
2023-05-01T16:31:16.027Z,10.40
2023-05-01T16:33:56.752Z,8.70
2023-05-01T16:36:25.401Z,14.50
2023-05-01T16:38:54.160Z,11.07
2023-05-01T16:41:23.069Z,7.70
2023-05-01T16:43:51.667Z,8.00
2023-05-01T16:46:20.739Z,10.53
2023-05-01T16:48:49.588Z,12.80
2023-05-01T16:51:20.067Z,9.97
2023-05-01T16:53:48.743Z,9.43
2023-05-01T16:56:17.314Z,9.83
2023-05-01T16:58:46.334Z,9.50
2023-05-01T17:01:15.067Z,9.87
2023-05-01T17:03:43.756Z,14.60
2023-05-01T17:06:12.413Z,13.80
2023-05-01T17:08:42.453Z,16.30
2023-05-01T17:11:14.365Z,13.60
2023-05-01T17:13:43.047Z,13.13
2023-05-01T17:16:11.692Z,10.47
2023-05-01T17:18:40.396Z,9.27
2023-05-01T17:21:09.556Z,9.57
2023-05-01T17:23:38.221Z,10.23
2023-05-01T17:26:08.251Z,9.17
2023-05-01T17:28:36.914Z,10.97
2023-05-01T17:31:05.565Z,9.30
2023-05-01T17:33:34.181Z,7.70
2023-05-01T17:36:03.008Z,20.57
2023-05-01T17:38:31.639Z,31.17
2023-05-01T17:41:00.296Z,16.47
2023-05-01T17:43:30.564Z,21.20
2023-05-01T17:45:59.295Z,20.90
2023-05-01T17:48:28.070Z,11.13
2023-05-01T17:50:57.785Z,13.90
2023-05-01T17:53:26.436Z,10.20
2023-05-01T17:55:55.091Z,9.53
2023-05-01T17:58:23.701Z,11.83
2023-05-01T18:00:55.440Z,9.03
2023-05-01T18:03:25.135Z,9.40
2023-05-01T18:05:53.892Z,7.67
2023-05-01T18:08:22.482Z,9.20
2023-05-01T18:10:51.123Z,9.20
2023-05-01T18:13:21.432Z,10.20
2023-05-01T18:15:51.875Z,8.80
2023-05-01T18:18:22.334Z,10.10
2023-05-01T18:20:51.066Z,9.00
2023-05-01T18:23:19.728Z,8.70
2023-05-01T18:25:48.358Z,9.63
2023-05-01T18:28:18.393Z,8.03
2023-05-01T18:30:47.075Z,9.00
2023-05-01T18:33:15.806Z,12.40
2023-05-01T18:35:45.854Z,9.90
2023-05-01T18:38:14.664Z,10.23
2023-05-01T18:40:43.240Z,9.33
2023-05-01T18:43:12.278Z,10.20
2023-05-01T18:45:41.396Z,10.43
2023-05-01T18:48:10.081Z,9.33
2023-05-01T18:50:38.790Z,12.00
2023-05-01T18:53:08.859Z,10.13
2023-05-01T18:55:37.445Z,10.07
2023-05-01T18:58:06.128Z,9.53
2023-05-01T19:00:34.761Z,6.23
2023-05-01T19:03:03.552Z,5.10
2023-05-01T19:05:32.476Z,6.20
2023-05-01T19:08:05.078Z,8.93
2023-05-01T19:10:37.297Z,6.43
2023-05-01T19:13:06.874Z,8.30
2023-05-01T19:15:36.316Z,7.47
2023-05-01T19:18:05.080Z,8.30
2023-05-01T19:20:33.730Z,9.03
2023-05-01T19:23:02.439Z,10.73
2023-05-01T19:25:32.433Z,9.10
2023-05-01T19:28:03.733Z,8.07
2023-05-01T19:30:32.356Z,8.07
2023-05-01T19:33:01.067Z,7.47
2023-05-01T19:35:29.829Z,9.40
2023-05-01T19:37:59.683Z,6.20
2023-05-01T19:40:28.740Z,8.00
2023-05-01T19:42:57.420Z,8.67
2023-05-01T19:45:27.456Z,5.80
2023-05-01T19:47:56.209Z,9.00
2023-05-01T19:50:24.904Z,9.13
2023-05-01T19:52:53.586Z,5.63
2023-05-01T19:55:22.264Z,6.63
2023-05-01T19:57:51.836Z,11.10
2023-05-01T20:00:20.947Z,6.53
2023-05-01T20:02:51.106Z,6.57
2023-05-01T20:05:20.807Z,8.67
2023-05-01T20:07:49.450Z,8.33
2023-05-01T20:10:18.088Z,6.63
2023-05-01T20:12:46.762Z,6.77
2023-05-01T20:15:15.485Z,8.33
2023-05-01T20:17:49.787Z,5.50
2023-05-01T20:20:20.182Z,9.53
2023-05-01T20:22:51.733Z,7.77
2023-05-01T20:25:20.444Z,7.73
2023-05-01T20:27:49.058Z,7.30
2023-05-01T20:30:18.166Z,9.50
2023-05-01T20:32:47.773Z,8.50
2023-05-01T20:35:16.630Z,9.07
2023-05-01T20:37:46.648Z,7.30
2023-05-01T20:40:16.376Z,6.80
2023-05-01T20:42:45.046Z,9.70
2023-05-01T20:45:13.704Z,7.70
2023-05-01T20:47:42.641Z,9.73
2023-05-01T20:50:11.884Z,7.57
2023-05-01T20:52:40.525Z,9.00
2023-05-01T20:55:11.119Z,8.50
2023-05-01T20:57:40.099Z,7.53
2023-05-01T21:00:09.510Z,10.67
2023-05-01T21:02:39.043Z,11.67
2023-05-01T21:05:08.937Z,10.50
2023-05-01T21:07:38.095Z,8.70
2023-05-01T21:10:07.697Z,7.17
2023-05-01T21:12:38.043Z,6.83
2023-05-01T21:15:07.458Z,11.67
2023-05-01T21:17:37.287Z,7.63
2023-05-01T21:20:07.183Z,9.33
2023-05-01T21:22:35.931Z,9.00
2023-05-01T21:25:05.248Z,10.10
2023-05-01T21:27:33.959Z,9.90
2023-05-01T21:30:05.242Z,7.37
2023-05-01T21:32:35.296Z,7.50
2023-05-01T21:35:04.545Z,11.00
2023-05-01T21:37:33.833Z,9.60
2023-05-01T21:40:03.865Z,9.83
2023-05-01T21:42:35.968Z,9.00
2023-05-01T21:45:10.121Z,7.43
2023-05-01T21:47:40.881Z,10.37
2023-05-01T21:50:12.653Z,11.47
2023-05-01T21:52:41.300Z,10.23
2023-05-01T21:55:11.118Z,7.87
2023-05-01T21:57:40.436Z,8.30
2023-05-01T22:00:11.230Z,8.07
2023-05-01T22:02:42.026Z,6.43
2023-05-01T22:05:11.625Z,12.47
2023-05-01T22:07:41.082Z,7.93
2023-05-01T22:10:11.627Z,12.60
2023-05-01T22:12:40.629Z,6.27
2023-05-01T22:15:12.367Z,6.87
2023-05-01T22:17:41.759Z,7.03
2023-05-01T22:20:10.813Z,7.87
2023-05-01T22:22:40.870Z,13.97
2023-05-01T22:25:11.464Z,12.87
2023-05-01T22:27:40.630Z,10.17
2023-05-01T22:30:11.912Z,7.73
2023-05-01T22:32:40.742Z,6.97
2023-05-01T22:35:10.039Z,7.50
2023-05-01T22:37:38.697Z,8.03
2023-05-01T22:40:08.954Z,6.80
2023-05-01T22:42:37.563Z,8.33
2023-05-01T22:45:07.204Z,7.73
2023-05-01T22:47:37.392Z,7.70
2023-05-01T22:50:06.794Z,7.60
2023-05-01T22:52:35.486Z,11.70
2023-05-01T22:55:04.254Z,7.63
2023-05-01T22:57:32.920Z,6.23
2023-05-01T23:00:01.922Z,9.70
2023-05-01T23:02:30.871Z,6.50
2023-05-01T23:05:00.951Z,6.30
2023-05-01T23:07:29.591Z,8.00
2023-05-01T23:10:01.609Z,8.50
2023-05-01T23:12:30.557Z,6.33
2023-05-01T23:14:59.415Z,8.33
2023-05-01T23:17:33.253Z,7.30
2023-05-01T23:20:03.282Z,6.97
2023-05-01T23:22:36.478Z,5.87
2023-05-01T23:25:06.856Z,6.73
2023-05-01T23:27:38.741Z,5.10
2023-05-01T23:30:09.696Z,6.53
2023-05-01T23:32:39.194Z,10.20
2023-05-01T23:35:12.664Z,10.33
2023-05-01T23:37:41.693Z,8.13
2023-05-01T23:40:10.974Z,6.57
2023-05-01T23:42:40.514Z,6.20
2023-05-01T23:45:09.512Z,9.87
2023-05-01T23:47:38.712Z,8.77
2023-05-01T23:50:08.231Z,9.20
2023-05-01T23:52:38.180Z,6.43
2023-05-01T23:55:07.116Z,6.53
2023-05-01T23:57:35.708Z,15.63
